sensor_id;sensor_type;location;lat;lon;timestamp;temperature;humidity
20698;DHT22;10508;50.956;4.640;2022-07-23T00:01:00;17.00;99.90
20698;DHT22;10508;50.956;4.640;2022-07-23T00:03:26;16.80;99.90
20698;DHT22;10508;50.956;4.640;2022-07-23T00:05:52;16.60;99.90
20698;DHT22;10508;50.956;4.640;2022-07-23T00:08:17;16.50;99.90
20698;DHT22;10508;50.956;4.640;2022-07-23T00:10:43;16.60;99.90
20698;DHT22;10508;50.956;4.640;2022-07-23T00:13:09;16.60;99.90
20698;DHT22;10508;50.956;4.640;2022-07-23T00:15:34;16.70;99.90
20698;DHT22;10508;50.956;4.640;2022-07-23T00:18:00;16.60;99.90
20698;DHT22;10508;50.956;4.640;2022-07-23T00:20:26;16.60;99.90
20698;DHT22;10508;50.956;4.640;2022-07-23T00:22:54;16.70;99.90
20698;DHT22;10508;50.956;4.640;2022-07-23T00:25:21;16.80;99.90
20698;DHT22;10508;50.956;4.640;2022-07-23T00:27:47;16.70;99.90
20698;DHT22;10508;50.956;4.640;2022-07-23T00:30:13;16.70;99.90
20698;DHT22;10508;50.956;4.640;2022-07-23T00:32:49;16.50;99.90
20698;DHT22;10508;50.956;4.640;2022-07-23T00:35:16;16.30;99.90
20698;DHT22;10508;50.956;4.640;2022-07-23T00:37:44;16.40;99.90
20698;DHT22;10508;50.956;4.640;2022-07-23T00:40:10;16.50;99.90
20698;DHT22;10508;50.956;4.640;2022-07-23T00:42:36;16.60;99.90
20698;DHT22;10508;50.956;4.640;2022-07-23T00:45:02;16.50;99.90
20698;DHT22;10508;50.956;4.640;2022-07-23T00:47:28;16.30;99.90
20698;DHT22;10508;50.956;4.640;2022-07-23T00:49:53;16.20;99.90
20698;DHT22;10508;50.956;4.640;2022-07-23T00:52:19;16.10;99.90
20698;DHT22;10508;50.956;4.640;2022-07-23T00:54:44;16.10;99.90
20698;DHT22;10508;50.956;4.640;2022-07-23T00:57:10;16.00;99.90
20698;DHT22;10508;50.956;4.640;2022-07-23T00:59:38;16.00;99.90
20698;DHT22;10508;50.956;4.640;2022-07-23T01:02:04;16.00;99.90
20698;DHT22;10508;50.956;4.640;2022-07-23T01:04:29;16.30;99.90
20698;DHT22;10508;50.956;4.640;2022-07-23T01:06:55;16.30;99.90
20698;DHT22;10508;50.956;4.640;2022-07-23T01:09:21;16.20;99.90
20698;DHT22;10508;50.956;4.640;2022-07-23T01:11:46;16.20;99.90
20698;DHT22;10508;50.956;4.640;2022-07-23T01:14:14;16.00;99.90
20698;DHT22;10508;50.956;4.640;2022-07-23T01:16:42;16.10;99.90
20698;DHT22;10508;50.956;4.640;2022-07-23T01:19:09;16.10;99.90
20698;DHT22;10508;50.956;4.640;2022-07-23T01:21:47;16.10;99.90
20698;DHT22;10508;50.956;4.640;2022-07-23T01:24:13;16.10;99.90
20698;DHT22;10508;50.956;4.640;2022-07-23T01:26:44;16.10;99.90
20698;DHT22;10508;50.956;4.640;2022-07-23T01:29:10;16.00;99.90
20698;DHT22;10508;50.956;4.640;2022-07-23T01:31:36;15.80;99.90
20698;DHT22;10508;50.956;4.640;2022-07-23T01:34:02;15.80;99.90
20698;DHT22;10508;50.956;4.640;2022-07-23T01:36:28;15.80;99.90
20698;DHT22;10508;50.956;4.640;2022-07-23T01:38:53;15.70;99.90
20698;DHT22;10508;50.956;4.640;2022-07-23T01:41:19;15.70;99.90
20698;DHT22;10508;50.956;4.640;2022-07-23T01:43:45;15.80;99.90
20698;DHT22;10508;50.956;4.640;2022-07-23T01:46:10;15.80;99.90
20698;DHT22;10508;50.956;4.640;2022-07-23T01:48:36;15.70;99.90
20698;DHT22;10508;50.956;4.640;2022-07-23T01:51:02;15.90;99.90
20698;DHT22;10508;50.956;4.640;2022-07-23T01:53:28;15.80;99.90
20698;DHT22;10508;50.956;4.640;2022-07-23T01:55:57;16.00;99.90
20698;DHT22;10508;50.956;4.640;2022-07-23T01:58:22;16.00;99.90
20698;DHT22;10508;50.956;4.640;2022-07-23T02:00:48;15.80;99.90
20698;DHT22;10508;50.956;4.640;2022-07-23T02:03:13;15.70;99.90
20698;DHT22;10508;50.956;4.640;2022-07-23T02:05:58;15.60;99.90
20698;DHT22;10508;50.956;4.640;2022-07-23T02:08:23;15.60;99.90
20698;DHT22;10508;50.956;4.640;2022-07-23T02:10:49;15.50;99.90
20698;DHT22;10508;50.956;4.640;2022-07-23T02:13:17;15.40;99.90
20698;DHT22;10508;50.956;4.640;2022-07-23T02:15:42;15.30;99.90
20698;DHT22;10508;50.956;4.640;2022-07-23T02:18:08;15.30;99.90
20698;DHT22;10508;50.956;4.640;2022-07-23T02:20:34;15.30;99.90
20698;DHT22;10508;50.956;4.640;2022-07-23T02:23:00;15.40;99.90
20698;DHT22;10508;50.956;4.640;2022-07-23T02:25:25;15.40;99.90
20698;DHT22;10508;50.956;4.640;2022-07-23T02:27:51;15.30;99.90
20698;DHT22;10508;50.956;4.640;2022-07-23T02:30:17;15.40;99.90
20698;DHT22;10508;50.956;4.640;2022-07-23T02:32:42;15.50;99.90
20698;DHT22;10508;50.956;4.640;2022-07-23T02:35:27;15.40;99.90
20698;DHT22;10508;50.956;4.640;2022-07-23T02:37:52;15.40;99.90
20698;DHT22;10508;50.956;4.640;2022-07-23T02:40:18;15.20;99.90
20698;DHT22;10508;50.956;4.640;2022-07-23T02:42:44;15.10;99.90
20698;DHT22;10508;50.956;4.640;2022-07-23T02:45:10;15.10;99.90
20698;DHT22;10508;50.956;4.640;2022-07-23T02:47:35;15.10;99.90
20698;DHT22;10508;50.956;4.640;2022-07-23T02:50:01;15.00;99.90
20698;DHT22;10508;50.956;4.640;2022-07-23T02:52:27;15.00;99.90
20698;DHT22;10508;50.956;4.640;2022-07-23T02:54:52;15.00;99.90
20698;DHT22;10508;50.956;4.640;2022-07-23T02:57:18;15.10;99.90
20698;DHT22;10508;50.956;4.640;2022-07-23T02:59:43;15.10;99.90
20698;DHT22;10508;50.956;4.640;2022-07-23T03:02:09;15.10;99.90
20698;DHT22;10508;50.956;4.640;2022-07-23T03:04:35;15.20;99.90
20698;DHT22;10508;50.956;4.640;2022-07-23T03:07:00;15.20;99.90
20698;DHT22;10508;50.956;4.640;2022-07-23T03:09:26;15.20;99.90
20698;DHT22;10508;50.956;4.640;2022-07-23T03:11:51;15.20;99.90
20698;DHT22;10508;50.956;4.640;2022-07-23T03:14:17;15.10;99.90
20698;DHT22;10508;50.956;4.640;2022-07-23T03:16:43;14.80;99.90
20698;DHT22;10508;50.956;4.640;2022-07-23T03:19:08;14.80;99.90
20698;DHT22;10508;50.956;4.640;2022-07-23T03:21:34;14.90;99.90
20698;DHT22;10508;50.956;4.640;2022-07-23T03:24:00;14.90;99.90
20698;DHT22;10508;50.956;4.640;2022-07-23T03:26:26;14.80;99.90
20698;DHT22;10508;50.956;4.640;2022-07-23T03:28:52;14.90;99.90
20698;DHT22;10508;50.956;4.640;2022-07-23T03:31:18;15.10;99.90
20698;DHT22;10508;50.956;4.640;2022-07-23T03:33:43;15.10;99.90
20698;DHT22;10508;50.956;4.640;2022-07-23T03:36:09;15.00;99.90
20698;DHT22;10508;50.956;4.640;2022-07-23T03:38:35;14.90;99.90
20698;DHT22;10508;50.956;4.640;2022-07-23T03:41:00;14.90;99.90
20698;DHT22;10508;50.956;4.640;2022-07-23T03:43:26;14.80;99.90
20698;DHT22;10508;50.956;4.640;2022-07-23T03:45:52;14.90;99.90
20698;DHT22;10508;50.956;4.640;2022-07-23T03:48:17;14.70;99.90
20698;DHT22;10508;50.956;4.640;2022-07-23T03:50:43;14.70;99.90
20698;DHT22;10508;50.956;4.640;2022-07-23T03:53:09;14.60;99.90
20698;DHT22;10508;50.956;4.640;2022-07-23T03:55:34;14.50;99.90
20698;DHT22;10508;50.956;4.640;2022-07-23T03:58:00;14.50;99.90
20698;DHT22;10508;50.956;4.640;2022-07-23T04:00:32;14.50;99.90
20698;DHT22;10508;50.956;4.640;2022-07-23T04:02:57;14.50;99.90
20698;DHT22;10508;50.956;4.640;2022-07-23T04:05:23;14.60;99.90
20698;DHT22;10508;50.956;4.640;2022-07-23T04:07:49;14.50;99.90
20698;DHT22;10508;50.956;4.640;2022-07-23T04:10:14;14.70;99.90
20698;DHT22;10508;50.956;4.640;2022-07-23T04:12:40;14.70;99.90
20698;DHT22;10508;50.956;4.640;2022-07-23T04:15:08;14.80;99.90
20698;DHT22;10508;50.956;4.640;2022-07-23T04:17:35;14.70;99.90
20698;DHT22;10508;50.956;4.640;2022-07-23T04:20:01;14.70;99.90
20698;DHT22;10508;50.956;4.640;2022-07-23T04:22:32;14.60;99.90
20698;DHT22;10508;50.956;4.640;2022-07-23T04:24:58;14.60;99.90
20698;DHT22;10508;50.956;4.640;2022-07-23T04:27:32;14.60;99.90
20698;DHT22;10508;50.956;4.640;2022-07-23T04:29:58;14.50;99.90
20698;DHT22;10508;50.956;4.640;2022-07-23T04:32:24;14.60;99.90
20698;DHT22;10508;50.956;4.640;2022-07-23T04:34:50;14.60;99.90
20698;DHT22;10508;50.956;4.640;2022-07-23T04:37:16;14.60;99.90
20698;DHT22;10508;50.956;4.640;2022-07-23T04:39:42;14.60;99.90
20698;DHT22;10508;50.956;4.640;2022-07-23T04:42:07;14.70;99.90
20698;DHT22;10508;50.956;4.640;2022-07-23T04:44:33;14.70;99.90
20698;DHT22;10508;50.956;4.640;2022-07-23T04:46:58;14.80;99.90
20698;DHT22;10508;50.956;4.640;2022-07-23T04:49:24;14.80;99.90
20698;DHT22;10508;50.956;4.640;2022-07-23T04:51:49;14.80;99.90
20698;DHT22;10508;50.956;4.640;2022-07-23T04:54:15;14.90;99.90
20698;DHT22;10508;50.956;4.640;2022-07-23T04:56:42;14.90;99.90
20698;DHT22;10508;50.956;4.640;2022-07-23T04:59:08;14.90;99.90
20698;DHT22;10508;50.956;4.640;2022-07-23T05:01:34;14.90;99.90
20698;DHT22;10508;50.956;4.640;2022-07-23T05:03:59;15.00;99.90
20698;DHT22;10508;50.956;4.640;2022-07-23T05:06:25;15.00;99.90
20698;DHT22;10508;50.956;4.640;2022-07-23T05:08:50;15.00;99.90
20698;DHT22;10508;50.956;4.640;2022-07-23T05:11:16;15.10;99.90
20698;DHT22;10508;50.956;4.640;2022-07-23T05:13:42;15.10;99.90
20698;DHT22;10508;50.956;4.640;2022-07-23T05:16:07;15.20;99.90
20698;DHT22;10508;50.956;4.640;2022-07-23T05:18:33;15.20;99.90
20698;DHT22;10508;50.956;4.640;2022-07-23T05:20:58;15.30;99.90
20698;DHT22;10508;50.956;4.640;2022-07-23T05:23:24;15.30;99.90
20698;DHT22;10508;50.956;4.640;2022-07-23T05:25:50;15.40;99.90
20698;DHT22;10508;50.956;4.640;2022-07-23T05:28:15;15.40;99.90
20698;DHT22;10508;50.956;4.640;2022-07-23T05:30:41;15.50;99.90
20698;DHT22;10508;50.956;4.640;2022-07-23T05:33:06;15.50;99.90
20698;DHT22;10508;50.956;4.640;2022-07-23T05:35:33;15.50;99.90
20698;DHT22;10508;50.956;4.640;2022-07-23T05:37:59;15.50;99.90
20698;DHT22;10508;50.956;4.640;2022-07-23T05:40:24;15.60;99.90
20698;DHT22;10508;50.956;4.640;2022-07-23T05:42:50;15.60;99.90
20698;DHT22;10508;50.956;4.640;2022-07-23T05:45:19;15.80;99.90
20698;DHT22;10508;50.956;4.640;2022-07-23T05:47:48;15.80;99.90
20698;DHT22;10508;50.956;4.640;2022-07-23T05:50:15;15.90;99.90
20698;DHT22;10508;50.956;4.640;2022-07-23T05:52:41;16.10;99.90
20698;DHT22;10508;50.956;4.640;2022-07-23T05:55:11;16.20;99.90
20698;DHT22;10508;50.956;4.640;2022-07-23T05:57:37;16.30;99.90
20698;DHT22;10508;50.956;4.640;2022-07-23T06:00:05;16.40;99.90
20698;DHT22;10508;50.956;4.640;2022-07-23T06:02:31;16.40;99.90
20698;DHT22;10508;50.956;4.640;2022-07-23T06:05:03;16.40;99.90
20698;DHT22;10508;50.956;4.640;2022-07-23T06:07:29;16.40;99.90
20698;DHT22;10508;50.956;4.640;2022-07-23T06:09:54;16.40;99.90
20698;DHT22;10508;50.956;4.640;2022-07-23T06:12:20;16.40;99.90
20698;DHT22;10508;50.956;4.640;2022-07-23T06:14:45;16.50;99.90
20698;DHT22;10508;50.956;4.640;2022-07-23T06:17:13;16.50;99.90
20698;DHT22;10508;50.956;4.640;2022-07-23T06:19:39;16.60;99.90
20698;DHT22;10508;50.956;4.640;2022-07-23T06:22:05;16.60;99.90
20698;DHT22;10508;50.956;4.640;2022-07-23T06:24:30;16.70;99.90
20698;DHT22;10508;50.956;4.640;2022-07-23T06:26:56;16.70;99.90
20698;DHT22;10508;50.956;4.640;2022-07-23T06:29:22;16.60;99.90
20698;DHT22;10508;50.956;4.640;2022-07-23T06:31:47;16.70;99.90
20698;DHT22;10508;50.956;4.640;2022-07-23T06:34:13;16.80;99.90
20698;DHT22;10508;50.956;4.640;2022-07-23T06:36:38;16.90;99.90
20698;DHT22;10508;50.956;4.640;2022-07-23T06:39:16;16.90;99.90
20698;DHT22;10508;50.956;4.640;2022-07-23T06:41:42;16.80;99.90
20698;DHT22;10508;50.956;4.640;2022-07-23T06:44:07;16.90;99.90
20698;DHT22;10508;50.956;4.640;2022-07-23T06:46:33;17.00;99.90
20698;DHT22;10508;50.956;4.640;2022-07-23T06:48:59;16.90;99.90
20698;DHT22;10508;50.956;4.640;2022-07-23T06:51:24;17.10;99.90
20698;DHT22;10508;50.956;4.640;2022-07-23T06:53:50;17.10;99.90
20698;DHT22;10508;50.956;4.640;2022-07-23T06:56:16;17.20;99.90
20698;DHT22;10508;50.956;4.640;2022-07-23T06:58:41;17.30;99.90
20698;DHT22;10508;50.956;4.640;2022-07-23T07:01:07;17.40;99.90
20698;DHT22;10508;50.956;4.640;2022-07-23T07:03:33;17.40;99.90
20698;DHT22;10508;50.956;4.640;2022-07-23T07:05:58;17.40;99.90
20698;DHT22;10508;50.956;4.640;2022-07-23T07:08:24;17.40;99.90
20698;DHT22;10508;50.956;4.640;2022-07-23T07:10:50;17.40;99.90
20698;DHT22;10508;50.956;4.640;2022-07-23T07:13:16;17.50;99.90
20698;DHT22;10508;50.956;4.640;2022-07-23T07:15:41;17.50;99.90
20698;DHT22;10508;50.956;4.640;2022-07-23T07:18:07;17.60;99.90
20698;DHT22;10508;50.956;4.640;2022-07-23T07:20:33;17.60;99.90
20698;DHT22;10508;50.956;4.640;2022-07-23T07:22:58;17.70;99.90
20698;DHT22;10508;50.956;4.640;2022-07-23T07:25:24;17.70;99.90
20698;DHT22;10508;50.956;4.640;2022-07-23T07:27:50;18.00;99.90
20698;DHT22;10508;50.956;4.640;2022-07-23T07:30:15;18.10;99.90
20698;DHT22;10508;50.956;4.640;2022-07-23T07:32:42;18.10;99.90
20698;DHT22;10508;50.956;4.640;2022-07-23T07:35:08;18.10;99.90
20698;DHT22;10508;50.956;4.640;2022-07-23T07:37:34;18.20;99.90
20698;DHT22;10508;50.956;4.640;2022-07-23T07:40:00;18.30;99.90
20698;DHT22;10508;50.956;4.640;2022-07-23T07:42:26;18.40;99.90
20698;DHT22;10508;50.956;4.640;2022-07-23T07:44:51;18.50;99.90
20698;DHT22;10508;50.956;4.640;2022-07-23T07:47:17;18.50;99.90
20698;DHT22;10508;50.956;4.640;2022-07-23T07:49:43;18.60;99.90
20698;DHT22;10508;50.956;4.640;2022-07-23T07:52:09;18.60;99.90
20698;DHT22;10508;50.956;4.640;2022-07-23T07:54:35;18.60;99.90
20698;DHT22;10508;50.956;4.640;2022-07-23T07:57:01;18.70;99.90
20698;DHT22;10508;50.956;4.640;2022-07-23T07:59:27;18.70;99.90
20698;DHT22;10508;50.956;4.640;2022-07-23T08:01:52;18.80;99.90
20698;DHT22;10508;50.956;4.640;2022-07-23T08:04:18;18.80;99.90
20698;DHT22;10508;50.956;4.640;2022-07-23T08:06:44;19.00;99.90
20698;DHT22;10508;50.956;4.640;2022-07-23T08:09:10;19.30;99.90
20698;DHT22;10508;50.956;4.640;2022-07-23T08:11:35;19.40;99.90
20698;DHT22;10508;50.956;4.640;2022-07-23T08:14:01;19.60;99.90
20698;DHT22;10508;50.956;4.640;2022-07-23T08:16:27;19.70;99.90
20698;DHT22;10508;50.956;4.640;2022-07-23T08:19:11;19.80;99.90
20698;DHT22;10508;50.956;4.640;2022-07-23T08:21:36;19.90;99.90
20698;DHT22;10508;50.956;4.640;2022-07-23T08:24:02;19.90;99.90
20698;DHT22;10508;50.956;4.640;2022-07-23T08:26:27;19.90;99.90
20698;DHT22;10508;50.956;4.640;2022-07-23T08:28:53;20.00;99.90
20698;DHT22;10508;50.956;4.640;2022-07-23T08:31:19;20.00;99.90
20698;DHT22;10508;50.956;4.640;2022-07-23T08:33:44;20.10;99.90
20698;DHT22;10508;50.956;4.640;2022-07-23T08:36:10;20.30;99.90
20698;DHT22;10508;50.956;4.640;2022-07-23T08:38:35;20.40;99.90
20698;DHT22;10508;50.956;4.640;2022-07-23T08:41:02;20.30;99.90
20698;DHT22;10508;50.956;4.640;2022-07-23T08:43:31;20.40;99.90
20698;DHT22;10508;50.956;4.640;2022-07-23T08:45:59;20.50;99.90
20698;DHT22;10508;50.956;4.640;2022-07-23T08:48:27;20.70;99.90
20698;DHT22;10508;50.956;4.640;2022-07-23T08:50:56;20.70;99.90
20698;DHT22;10508;50.956;4.640;2022-07-23T08:53:23;20.70;99.90
20698;DHT22;10508;50.956;4.640;2022-07-23T08:55:51;20.80;99.90
20698;DHT22;10508;50.956;4.640;2022-07-23T08:58:18;20.90;99.90
20698;DHT22;10508;50.956;4.640;2022-07-23T09:00:45;21.10;99.90
20698;DHT22;10508;50.956;4.640;2022-07-23T09:03:19;21.20;99.90
20698;DHT22;10508;50.956;4.640;2022-07-23T09:05:46;21.30;99.90
20698;DHT22;10508;50.956;4.640;2022-07-23T09:08:14;21.40;99.90
20698;DHT22;10508;50.956;4.640;2022-07-23T09:10:50;21.50;99.90
20698;DHT22;10508;50.956;4.640;2022-07-23T09:13:42;21.60;99.90
20698;DHT22;10508;50.956;4.640;2022-07-23T09:16:28;21.80;99.90
20698;DHT22;10508;50.956;4.640;2022-07-23T09:19:03;22.10;99.90
20698;DHT22;10508;50.956;4.640;2022-07-23T09:21:32;22.30;99.90
20698;DHT22;10508;50.956;4.640;2022-07-23T09:24:01;22.40;99.90
20698;DHT22;10508;50.956;4.640;2022-07-23T09:26:28;22.60;99.90
20698;DHT22;10508;50.956;4.640;2022-07-23T09:31:33;22.80;97.60
20698;DHT22;10508;50.956;4.640;2022-07-23T09:36:38;23.10;96.70
20698;DHT22;10508;50.956;4.640;2022-07-23T09:39:04;23.20;95.50
20698;DHT22;10508;50.956;4.640;2022-07-23T09:41:38;23.20;94.60
20698;DHT22;10508;50.956;4.640;2022-07-23T09:46:37;23.60;95.30
20698;DHT22;10508;50.956;4.640;2022-07-23T09:49:13;23.60;95.50
20698;DHT22;10508;50.956;4.640;2022-07-23T09:51:57;23.70;94.20
20698;DHT22;10508;50.956;4.640;2022-07-23T09:54:26;23.90;95.20
20698;DHT22;10508;50.956;4.640;2022-07-23T09:56:54;23.90;95.70
20698;DHT22;10508;50.956;4.640;2022-07-23T09:59:27;23.90;93.50
20698;DHT22;10508;50.956;4.640;2022-07-23T10:01:55;23.90;92.90
20698;DHT22;10508;50.956;4.640;2022-07-23T10:04:23;23.90;93.60
20698;DHT22;10508;50.956;4.640;2022-07-23T10:06:52;24.10;92.90
20698;DHT22;10508;50.956;4.640;2022-07-23T10:09:27;24.50;94.90
20698;DHT22;10508;50.956;4.640;2022-07-23T10:11:56;24.50;92.50
20698;DHT22;10508;50.956;4.640;2022-07-23T10:14:26;24.60;94.40
20698;DHT22;10508;50.956;4.640;2022-07-23T10:16:53;24.70;92.90
20698;DHT22;10508;50.956;4.640;2022-07-23T10:19:19;24.70;91.90
20698;DHT22;10508;50.956;4.640;2022-07-23T10:21:59;24.70;92.40
20698;DHT22;10508;50.956;4.640;2022-07-23T10:30:28;24.90;91.10
20698;DHT22;10508;50.956;4.640;2022-07-23T10:36:06;25.20;90.70
20698;DHT22;10508;50.956;4.640;2022-07-23T10:41:13;25.40;89.10
20698;DHT22;10508;50.956;4.640;2022-07-23T10:43:39;25.50;91.60
20698;DHT22;10508;50.956;4.640;2022-07-23T10:46:24;25.70;91.70
20698;DHT22;10508;50.956;4.640;2022-07-23T10:49:23;25.90;85.70
20698;DHT22;10508;50.956;4.640;2022-07-23T10:52:24;26.30;86.80
20698;DHT22;10508;50.956;4.640;2022-07-23T10:57:49;26.10;87.00
20698;DHT22;10508;50.956;4.640;2022-07-23T11:00:35;26.10;86.20
20698;DHT22;10508;50.956;4.640;2022-07-23T11:03:27;26.10;88.90
20698;DHT22;10508;50.956;4.640;2022-07-23T11:05:48;26.10;82.90
20698;DHT22;10508;50.956;4.640;2022-07-23T11:08:16;26.20;85.50
20698;DHT22;10508;50.956;4.640;2022-07-23T11:13:44;26.60;88.80
20698;DHT22;10508;50.956;4.640;2022-07-23T11:16:15;26.60;86.10
20698;DHT22;10508;50.956;4.640;2022-07-23T11:24:07;26.50;81.30
20698;DHT22;10508;50.956;4.640;2022-07-23T11:26:52;26.40;81.50
20698;DHT22;10508;50.956;4.640;2022-07-23T11:32:07;26.70;80.90
20698;DHT22;10508;50.956;4.640;2022-07-23T11:34:40;26.80;79.00
20698;DHT22;10508;50.956;4.640;2022-07-23T11:37:08;26.70;77.90
20698;DHT22;10508;50.956;4.640;2022-07-23T11:39:35;26.60;77.40
20698;DHT22;10508;50.956;4.640;2022-07-23T11:42:02;26.50;77.10
20698;DHT22;10508;50.956;4.640;2022-07-23T11:44:32;26.80;78.00
20698;DHT22;10508;50.956;4.640;2022-07-23T11:49:25;26.90;76.30
20698;DHT22;10508;50.956;4.640;2022-07-23T11:52:09;27.10;76.90
20698;DHT22;10508;50.956;4.640;2022-07-23T11:57:35;27.30;72.50
20698;DHT22;10508;50.956;4.640;2022-07-23T12:00:11;27.00;73.40
20698;DHT22;10508;50.956;4.640;2022-07-23T12:02:49;27.00;75.70
20698;DHT22;10508;50.956;4.640;2022-07-23T12:05:18;27.20;74.60
20698;DHT22;10508;50.956;4.640;2022-07-23T12:07:45;27.30;77.80
20698;DHT22;10508;50.956;4.640;2022-07-23T12:13:03;27.70;74.30
20698;DHT22;10508;50.956;4.640;2022-07-23T12:15:38;27.60;74.10
20698;DHT22;10508;50.956;4.640;2022-07-23T12:18:06;27.50;72.50
20698;DHT22;10508;50.956;4.640;2022-07-23T12:20:44;27.60;71.80
20698;DHT22;10508;50.956;4.640;2022-07-23T12:23:12;27.70;74.80
20698;DHT22;10508;50.956;4.640;2022-07-23T12:25:40;27.80;75.00
20698;DHT22;10508;50.956;4.640;2022-07-23T12:30:51;28.00;71.40
20698;DHT22;10508;50.956;4.640;2022-07-23T12:33:24;28.10;75.50
20698;DHT22;10508;50.956;4.640;2022-07-23T12:35:51;28.30;75.30
20698;DHT22;10508;50.956;4.640;2022-07-23T12:38:20;28.20;74.00
20698;DHT22;10508;50.956;4.640;2022-07-23T12:41:12;28.20;73.10
20698;DHT22;10508;50.956;4.640;2022-07-23T12:43:40;28.10;72.10
20698;DHT22;10508;50.956;4.640;2022-07-23T12:46:13;28.10;71.70
20698;DHT22;10508;50.956;4.640;2022-07-23T12:54:05;28.30;75.50
20698;DHT22;10508;50.956;4.640;2022-07-23T12:56:33;28.50;72.80
20698;DHT22;10508;50.956;4.640;2022-07-23T12:59:07;28.70;70.90
20698;DHT22;10508;50.956;4.640;2022-07-23T13:01:38;28.80;74.60
20698;DHT22;10508;50.956;4.640;2022-07-23T13:06:32;28.80;70.60
20698;DHT22;10508;50.956;4.640;2022-07-23T13:08:58;28.90;73.00
20698;DHT22;10508;50.956;4.640;2022-07-23T13:11:24;28.90;74.10
20698;DHT22;10508;50.956;4.640;2022-07-23T13:13:50;29.10;71.20
20698;DHT22;10508;50.956;4.640;2022-07-23T13:16:16;29.20;74.60
20698;DHT22;10508;50.956;4.640;2022-07-23T13:18:42;29.20;71.90
20698;DHT22;10508;50.956;4.640;2022-07-23T13:21:08;29.20;72.40
20698;DHT22;10508;50.956;4.640;2022-07-23T13:23:34;29.30;72.70
20698;DHT22;10508;50.956;4.640;2022-07-23T13:26:00;29.50;70.60
20698;DHT22;10508;50.956;4.640;2022-07-23T13:28:26;29.50;72.70
20698;DHT22;10508;50.956;4.640;2022-07-23T13:30:52;29.40;69.70
20698;DHT22;10508;50.956;4.640;2022-07-23T13:33:22;29.20;69.00
20698;DHT22;10508;50.956;4.640;2022-07-23T13:35:49;28.70;71.80
20698;DHT22;10508;50.956;4.640;2022-07-23T13:38:15;28.60;70.90
20698;DHT22;10508;50.956;4.640;2022-07-23T13:40:43;28.80;70.20
20698;DHT22;10508;50.956;4.640;2022-07-23T13:43:10;28.70;72.30
20698;DHT22;10508;50.956;4.640;2022-07-23T13:45:36;28.90;70.40
20698;DHT22;10508;50.956;4.640;2022-07-23T13:48:04;28.90;69.10
20698;DHT22;10508;50.956;4.640;2022-07-23T13:50:29;28.90;70.10
20698;DHT22;10508;50.956;4.640;2022-07-23T13:52:55;29.10;70.50
20698;DHT22;10508;50.956;4.640;2022-07-23T13:55:21;29.30;70.00
20698;DHT22;10508;50.956;4.640;2022-07-23T13:57:47;29.20;71.20
20698;DHT22;10508;50.956;4.640;2022-07-23T14:00:13;29.40;69.20
20698;DHT22;10508;50.956;4.640;2022-07-23T14:02:40;29.60;68.30
20698;DHT22;10508;50.956;4.640;2022-07-23T14:05:07;29.70;70.30
20698;DHT22;10508;50.956;4.640;2022-07-23T14:07:34;30.00;68.60
20698;DHT22;10508;50.956;4.640;2022-07-23T14:10:00;30.30;69.10
20698;DHT22;10508;50.956;4.640;2022-07-23T14:12:26;30.30;67.60
20698;DHT22;10508;50.956;4.640;2022-07-23T14:14:52;29.90;67.80
20698;DHT22;10508;50.956;4.640;2022-07-23T14:17:18;29.20;69.90
20698;DHT22;10508;50.956;4.640;2022-07-23T14:19:44;28.80;72.80
20698;DHT22;10508;50.956;4.640;2022-07-23T14:22:09;28.60;69.60
20698;DHT22;10508;50.956;4.640;2022-07-23T14:24:35;28.60;72.90
20698;DHT22;10508;50.956;4.640;2022-07-23T14:27:02;28.70;70.60
20698;DHT22;10508;50.956;4.640;2022-07-23T14:29:28;28.70;70.00
20698;DHT22;10508;50.956;4.640;2022-07-23T14:31:54;28.60;70.30
20698;DHT22;10508;50.956;4.640;2022-07-23T14:34:20;28.30;71.80
20698;DHT22;10508;50.956;4.640;2022-07-23T14:36:45;28.30;72.90
20698;DHT22;10508;50.956;4.640;2022-07-23T14:39:11;28.30;72.00
20698;DHT22;10508;50.956;4.640;2022-07-23T14:41:38;28.40;71.80
20698;DHT22;10508;50.956;4.640;2022-07-23T14:44:04;28.60;73.00
20698;DHT22;10508;50.956;4.640;2022-07-23T14:46:30;29.00;71.40
20698;DHT22;10508;50.956;4.640;2022-07-23T14:48:56;29.10;70.40
20698;DHT22;10508;50.956;4.640;2022-07-23T14:51:21;29.00;71.30
20698;DHT22;10508;50.956;4.640;2022-07-23T14:53:47;29.10;70.60
20698;DHT22;10508;50.956;4.640;2022-07-23T14:56:13;29.30;73.20
20698;DHT22;10508;50.956;4.640;2022-07-23T14:58:39;29.20;68.00
20698;DHT22;10508;50.956;4.640;2022-07-23T15:01:06;29.20;68.00
20698;DHT22;10508;50.956;4.640;2022-07-23T15:03:32;29.10;72.50
20698;DHT22;10508;50.956;4.640;2022-07-23T15:05:58;29.20;69.70
20698;DHT22;10508;50.956;4.640;2022-07-23T15:08:24;29.40;70.90
20698;DHT22;10508;50.956;4.640;2022-07-23T15:10:51;29.20;68.60
20698;DHT22;10508;50.956;4.640;2022-07-23T15:13:17;29.30;70.00
20698;DHT22;10508;50.956;4.640;2022-07-23T15:15:43;29.50;69.10
20698;DHT22;10508;50.956;4.640;2022-07-23T15:18:10;29.60;69.70
20698;DHT22;10508;50.956;4.640;2022-07-23T15:20:36;29.70;69.20
20698;DHT22;10508;50.956;4.640;2022-07-23T15:23:07;29.90;68.80
20698;DHT22;10508;50.956;4.640;2022-07-23T15:25:33;30.30;68.70
20698;DHT22;10508;50.956;4.640;2022-07-23T15:27:58;30.70;69.20
20698;DHT22;10508;50.956;4.640;2022-07-23T15:30:25;31.20;66.30
20698;DHT22;10508;50.956;4.640;2022-07-23T15:32:51;31.30;66.50
20698;DHT22;10508;50.956;4.640;2022-07-23T15:35:17;31.80;66.10
20698;DHT22;10508;50.956;4.640;2022-07-23T15:37:43;32.00;65.60
20698;DHT22;10508;50.956;4.640;2022-07-23T15:40:09;31.90;65.40
20698;DHT22;10508;50.956;4.640;2022-07-23T15:42:35;31.60;65.90
20698;DHT22;10508;50.956;4.640;2022-07-23T15:45:01;31.60;65.90
20698;DHT22;10508;50.956;4.640;2022-07-23T15:47:27;31.90;66.20
20698;DHT22;10508;50.956;4.640;2022-07-23T15:49:53;32.10;64.40
20698;DHT22;10508;50.956;4.640;2022-07-23T15:52:19;31.80;63.90
20698;DHT22;10508;50.956;4.640;2022-07-23T15:54:44;31.30;67.50
20698;DHT22;10508;50.956;4.640;2022-07-23T15:57:10;31.40;68.20
20698;DHT22;10508;50.956;4.640;2022-07-23T15:59:37;31.20;64.60
20698;DHT22;10508;50.956;4.640;2022-07-23T16:02:03;31.00;64.80
20698;DHT22;10508;50.956;4.640;2022-07-23T16:04:28;31.00;66.30
20698;DHT22;10508;50.956;4.640;2022-07-23T16:06:55;30.70;65.60
20698;DHT22;10508;50.956;4.640;2022-07-23T16:09:21;30.40;66.20
20698;DHT22;10508;50.956;4.640;2022-07-23T16:11:46;30.60;66.30
20698;DHT22;10508;50.956;4.640;2022-07-23T16:14:12;30.80;66.00
20698;DHT22;10508;50.956;4.640;2022-07-23T16:16:38;30.70;66.60
20698;DHT22;10508;50.956;4.640;2022-07-23T16:19:05;30.90;65.70
20698;DHT22;10508;50.956;4.640;2022-07-23T16:21:30;31.10;65.40
20698;DHT22;10508;50.956;4.640;2022-07-23T16:23:56;31.40;65.20